.
WxDataArchive / Data Records for 2010-09-10
2010-09-09 September 2010 2010-09-11

Data Records for Friday, 10 September 2010

Time	Temp	Chill	HIndex	Humid	Dewpt	 Wind 	HiWind	WindDir	Rain 	Barom 
-----	----	-----	------	-----	-----	------	------	-------	-----	----- 
00:00	53.8	53.8	53.8	81	48.1	0	0	---	0.00	30.041 
00:05	53.5	53.5	53.5	81	47.8	0	0	---	0.00	30.041 
00:10	53.3	53.3	53.3	82	47.9	0	0	---	0.00	30.041 
00:15	53.1	53.1	53.1	83	48.1	0	0	---	0.00	30.044 
00:20	52.9	52.9	52.9	83	47.9	0	0	---	0.00	30.044 
00:25	52.8	52.8	52.8	84	48.1	0	0	---	0.00	30.044 
00:30	52.6	52.6	52.6	84	47.9	0	0	---	0.00	30.042 
00:35	52.5	52.5	52.5	85	48.1	0	0	---	0.00	30.042 
00:40	52.3	52.3	52.3	86	48.2	0	0	---	0.00	30.042 
00:45	52.2	52.2	52.2	86	48.1	0	0	---	0.00	30.043 
00:50	52.2	52.2	52.2	86	48.1	0	0	---	0.00	30.043 
00:55	52.0	52.0	52.0	86	47.9	0	0	---	0.00	30.043 
01:00	52.0	52.0	52.0	87	48.3	0	0	---	0.00	30.043 
01:05	51.9	51.9	51.9	87	48.2	0	0	---	0.00	30.043 
01:10	51.7	51.7	51.7	87	48.0	0	0	---	0.00	30.043 
01:15	51.6	51.6	51.6	87	47.9	0	0	---	0.00	30.041 
01:20	51.6	51.6	51.6	87	47.9	0	0	---	0.00	30.041 
01:25	51.4	51.4	51.4	87	47.7	0	0	---	0.00	30.041 
01:30	51.3	51.3	51.3	87	47.6	0	0	---	0.00	30.044 
01:35	51.1	51.1	51.1	87	47.4	0	0	---	0.00	30.044 
01:40	51.0	51.0	51.0	88	47.6	0	0	---	0.00	30.044 
01:45	50.8	50.8	50.8	88	47.4	0	0	---	0.00	30.043 
01:50	50.7	50.7	50.7	88	47.3	0	0	---	0.00	30.043 
01:55	50.5	50.5	50.5	88	47.1	0	0	---	0.00	30.043 
02:00	50.4	50.4	50.4	88	47.0	0	0	---	0.00	30.042 
02:05	50.4	50.4	50.4	88	47.0	0	0	---	0.00	30.042 
02:10	50.2	50.2	50.2	88	46.8	0	0	---	0.00	30.042 
02:15	50.1	50.1	50.1	89	47.0	0	0	---	0.00	30.041 
02:20	49.9	49.9	49.9	89	46.8	0	0	---	0.00	30.041 
02:25	49.9	49.9	49.9	89	46.8	0	0	---	0.00	30.041 
02:30	49.8	49.8	49.8	89	46.7	0	0	---	0.00	30.038 
02:35	49.6	49.6	49.6	90	46.8	0	0	---	0.00	30.038 
02:40	49.6	49.6	49.6	90	46.8	0	0	---	0.00	30.038 
02:45	49.5	49.5	49.5	90	46.7	0	0	---	0.00	30.038 
02:50	49.5	49.5	49.5	90	46.7	0	0	---	0.00	30.038 
02:55	49.4	49.4	49.4	91	46.9	0	0	---	0.00	30.038 
03:00	49.2	49.2	49.2	91	46.7	0	0	---	0.00	30.038 
03:05	49.2	49.2	49.2	91	46.7	0	0	---	0.00	30.038 
03:10	49.2	49.2	49.2	91	46.7	0	0	---	0.00	30.038 
03:15	49.1	49.1	49.1	91	46.6	0	0	---	0.00	30.038 
03:20	49.1	49.1	49.1	92	46.9	0	0	---	0.00	30.038 
03:25	48.9	48.9	48.9	92	46.7	0	0	---	0.00	30.038 
03:30	48.9	48.9	48.9	92	46.7	0	0	---	0.00	30.040 
03:35	48.8	48.8	48.8	92	46.6	0	0	---	0.00	30.040 
03:40	48.8	48.8	48.8	92	46.6	0	0	---	0.00	30.040 
03:45	48.6	48.6	48.6	92	46.4	0	0	---	0.00	30.038 
03:50	48.6	48.6	48.6	92	46.4	0	0	---	0.00	30.038 
03:55	48.5	48.5	48.5	92	46.3	0	0	---	0.00	30.038 
04:00	48.3	48.3	48.3	92	46.1	0	0	---	0.00	30.039 
04:05	48.2	48.2	48.2	92	46.0	0	0	---	0.00	30.039 
04:10	48.0	48.0	48.0	92	45.8	0	0	---	0.00	30.039 
04:15	48.0	48.0	48.0	92	45.8	0	0	---	0.00	30.040 
04:20	48.0	48.0	48.0	92	45.8	0	0	---	0.00	30.040 
04:25	47.9	47.9	47.9	92	45.7	0	0	---	0.00	30.040 
04:30	47.9	47.9	47.9	92	45.7	0	0	---	0.00	30.047 
04:35	47.7	47.7	47.7	92	45.5	0	0	---	0.00	30.047 
04:40	47.6	47.6	47.6	92	45.4	0	0	---	0.00	30.047 
04:45	47.6	47.6	47.6	92	45.4	0	0	---	0.00	30.052 
04:50	47.4	47.4	47.4	92	45.2	0	0	---	0.00	30.052 
04:55	47.4	47.4	47.4	92	45.2	0	0	---	0.00	30.052 
05:00	47.3	47.3	47.3	92	45.1	0	0	---	0.00	30.048 
05:05	47.1	47.1	47.1	92	44.9	0	0	---	0.00	30.048 
05:10	47.0	47.0	47.0	92	44.8	0	0	---	0.00	30.048 
05:15	47.0	47.0	47.0	92	44.8	0	0	---	0.00	30.053 
05:20	46.8	46.8	46.8	92	44.6	0	0	---	0.00	30.053 
05:25	46.7	46.7	46.7	93	44.8	0	0	---	0.00	30.053 
05:30	46.7	46.7	46.7	93	44.8	0	0	---	0.00	30.053 
05:35	46.5	46.5	46.5	93	44.6	0	0	---	0.00	30.053 
05:40	46.5	46.5	46.5	93	44.6	0	0	---	0.00	30.053 
05:45	46.4	46.4	46.4	93	44.5	0	0	---	0.00	30.053 
05:50	46.2	46.2	46.2	93	44.3	0	0	---	0.00	30.053 
05:55	46.2	46.2	46.2	93	44.3	0	0	---	0.00	30.053 
06:00	46.1	46.1	46.1	93	44.2	0	0	---	0.00	30.053 
06:05	46.1	46.1	46.1	93	44.2	0	0	---	0.00	30.053 
06:10	46.0	46.0	46.0	93	44.1	0	0	---	0.00	30.053 
06:15	46.0	46.0	46.0	93	44.1	0	0	---	0.00	30.056 
06:20	45.8	45.8	45.8	93	43.9	0	0	---	0.00	30.056 
06:25	45.8	45.8	45.8	93	43.9	0	0	---	0.00	30.056 
06:30	45.7	45.7	45.7	93	43.8	0	0	---	0.00	30.056 
06:35	45.7	45.7	45.7	94	44.1	0	0	---	0.00	30.056 
06:40	45.7	45.7	45.7	94	44.1	0	0	---	0.00	30.056 
06:45	45.5	45.5	45.5	94	43.9	0	0	---	0.00	30.057 
06:50	45.5	45.5	45.5	94	43.9	0	0	---	0.00	30.057 
06:55	45.5	45.5	45.5	94	43.9	0	0	---	0.00	30.057 
07:00	45.5	45.5	45.5	94	43.9	0	0	---	0.00	30.057 
07:05	45.5	45.5	45.5	94	43.9	0	0	---	0.00	30.057 
07:10	45.5	45.5	45.5	94	43.9	0	0	---	0.00	30.057 
07:15	45.8	45.8	45.8	95	44.4	0	0	---	0.00	30.058 
07:20	46.4	46.4	46.4	95	45.0	0	1	135	0.00	30.058 
07:25	46.8	46.8	46.8	95	45.4	0	2	135	0.00	30.058 
07:30	47.3	47.3	47.3	95	45.9	0	1	135	0.00	30.059 
07:35	47.7	47.7	47.7	95	46.3	0	2	135	0.00	30.059 
07:40	48.2	48.2	48.2	95	46.8	0	1	135	0.00	30.059 
07:45	48.5	48.5	48.5	95	47.1	1	5	90	0.00	30.057 
07:50	48.8	48.8	48.8	94	47.1	1	4	112	0.00	30.057 
07:55	48.9	48.9	48.9	94	47.2	0	3	112	0.00	30.057 
08:00	49.1	49.1	49.1	94	47.4	0	2	112	0.00	30.061 
08:05	49.4	49.4	49.4	94	47.7	1	6	90	0.00	30.061 
08:10	49.8	49.8	49.8	93	47.9	1	4	45	0.00	30.061 
08:15	50.2	50.2	50.2	93	48.3	0	3	68	0.00	30.069 
08:20	51.0	51.0	51.0	92	48.8	1	3	68	0.00	30.069 
08:25	51.6	51.6	51.6	90	48.8	1	5	68	0.00	30.069 
08:30	51.9	51.9	51.9	89	48.8	1	3	90	0.00	30.069 
08:35	52.2	52.2	52.2	89	49.1	0	3	90	0.00	30.069 
08:40	52.2	52.2	52.2	88	48.8	2	5	90	0.00	30.069 
08:45	52.2	52.2	52.2	87	48.4	3	6	90	0.00	30.066 
08:50	52.2	52.2	52.2	87	48.4	2	6	90	0.00	30.066 
08:55	52.5	52.5	52.5	87	48.7	1	4	112	0.00	30.066 
09:00	52.8	52.8	52.8	90	49.9	1	3	112	0.00	30.068 
09:05	53.2	53.2	53.2	88	49.7	1	3	112	0.00	30.068 
09:10	53.5	53.5	53.5	86	49.4	2	6	90	0.00	30.068 
09:15	53.8	53.8	53.8	86	49.7	2	5	68	0.00	30.070 
09:20	54.2	54.2	54.2	86	50.1	1	3	112	0.00	30.070 
09:25	54.7	54.7	54.7	85	50.3	1	3	90	0.00	30.070 
09:30	55.3	55.3	55.3	85	50.9	1	4	68	0.00	30.066 
09:35	55.6	55.6	55.6	84	50.8	1	5	68	0.00	30.066 
09:40	56.0	56.0	56.0	83	50.9	1	4	90	0.00	30.066 
09:45	56.6	56.6	56.6	83	51.5	2	5	90	0.00	30.067 
09:50	57.0	57.0	57.0	81	51.2	2	4	90	0.00	30.067 
09:55	57.6	57.6	57.6	80	51.5	2	6	90	0.00	30.067 
10:00	58.3	58.3	58.3	78	51.5	3	9	90	0.00	30.065 
10:05	58.9	58.9	58.9	77	51.7	3	9	90	0.00	30.065 
10:10	59.6	59.6	59.6	75	51.7	3	9	90	0.00	30.065 
10:15	60.4	60.4	60.4	74	52.1	2	7	90	0.00	30.062 
10:20	61.0	61.0	61.0	73	52.3	2	5	68	0.00	30.062 
10:25	61.8	61.8	61.8	69	51.5	2	6	90	0.00	30.062 
10:30	62.1	62.1	62.1	70	52.2	2	9	90	0.00	30.063 
10:35	62.7	62.7	62.7	69	52.4	3	6	90	0.00	30.063 
10:40	63.1	63.1	63.1	69	52.8	3	7	90	0.00	30.063 
10:45	63.7	63.7	63.7	67	52.5	2	6	90	0.00	30.053 
10:50	64.3	64.3	64.3	65	52.3	2	6	112	0.00	30.053 
10:55	64.3	64.3	64.3	64	51.9	4	7	90	0.00	30.053 
11:00	64.2	64.2	64.2	64	51.8	3	7	90	0.00	30.053 
11:05	64.2	64.2	64.2	64	51.8	4	9	90	0.00	30.053 
11:10	64.7	64.7	64.7	62	51.4	3	7	90	0.00	30.053 
11:15	65.0	65.0	65.0	62	51.7	3	7	90	0.00	30.060 
11:20	65.6	65.6	65.6	60	51.3	2	6	90	0.00	30.060 
11:25	66.3	66.3	66.3	60	52.0	2	5	90	0.00	30.060 
11:30	66.3	66.3	66.3	59	51.5	2	6	90	0.00	30.064 
11:35	66.6	66.6	66.6	59	51.8	2	6	90	0.00	30.064 
11:40	67.3	67.3	67.3	56	51.1	2	7	112	0.00	30.064 
11:45	66.9	66.9	66.9	58	51.6	2	4	90	0.00	30.063 
11:50	66.9	66.9	66.9	57	51.2	1	7	90	0.00	30.063 
11:55	67.6	67.6	67.6	55	50.8	2	7	90	0.00	30.063 
12:00	67.8	67.8	67.8	54	50.5	2	7	90	0.00	30.059 
12:05	67.8	67.8	67.8	55	51.0	3	9	90	0.00	30.059 
12:10	68.3	68.3	68.3	54	51.0	3	6	90	0.00	30.059 
12:15	68.3	68.3	68.3	54	51.0	1	3	68	0.00	30.056 
12:20	68.9	68.9	68.9	52	50.5	2	7	90	0.00	30.056 
12:25	69.3	69.3	69.3	50	49.8	2	5	90	0.00	30.056 
12:30	69.4	69.4	69.4	53	51.5	2	4	90	0.00	30.055 
12:35	69.4	69.4	69.4	52	51.0	3	7	90	0.00	30.055 
12:40	69.6	69.6	69.6	50	50.1	2	5	90	0.00	30.055 
12:45	69.9	69.9	69.9	52	51.5	1	4	90	0.00	30.050 
12:50	70.6	70.6	70.6	50	51.0	3	5	112	0.00	30.050 
12:55	71.1	71.1	71.1	48	50.4	2	7	68	0.00	30.050 
13:00	70.9	70.9	70.9	47	49.7	3	9	68	0.00	30.049 
13:05	70.3	70.3	70.3	48	49.7	3	7	68	0.00	30.049 
13:10	70.1	70.1	70.1	49	50.0	2	5	112	0.00	30.049 
13:15	69.9	69.9	69.9	50	50.4	3	6	90	0.00	30.043 
13:20	70.1	70.1	70.1	51	51.1	2	5	68	0.00	30.043 
13:25	70.8	70.8	70.8	48	50.1	2	7	90	0.00	30.043 
13:30	70.9	70.9	70.9	48	50.2	3	6	90	0.00	30.035 
13:35	70.9	70.9	70.9	47	49.7	2	6	90	0.00	30.035 
13:40	71.6	71.6	71.6	48	50.9	2	6	68	0.00	30.035 
13:45	71.8	71.8	71.8	47	50.5	3	9	90	0.00	30.033 
13:50	72.0	72.0	72.0	45	49.5	2	6	90	0.00	30.033 
13:55	71.8	71.8	71.8	46	49.9	2	5	112	0.00	30.033 
14:00	72.0	72.0	72.0	46	50.1	3	7	90	0.00	30.022 
14:05	72.5	72.5	72.5	44	49.3	3	9	90	0.00	30.022 
14:10	72.3	72.3	72.3	45	49.8	2	5	90	0.00	30.022 
14:15	72.5	72.5	72.5	43	48.7	2	6	112	0.00	30.018 
14:20	72.7	72.7	72.7	45	50.1	2	7	112	0.00	30.018 
14:25	72.5	72.5	72.5	45	49.9	3	7	90	0.00	30.018 
14:30	72.5	72.5	72.5	43	48.7	3	7	90	0.00	30.017 
14:35	72.7	72.7	72.7	43	48.9	1	4	90	0.00	30.017 
14:40	73.2	73.2	73.2	43	49.3	3	7	90	0.00	30.017 
14:45	73.2	73.2	73.2	42	48.7	2	7	90	0.00	30.011 
14:50	73.5	73.5	73.5	43	49.6	1	4	112	0.00	30.011 
14:55	73.7	73.7	73.7	43	49.8	3	7	90	0.00	30.011 
15:00	73.7	73.7	73.7	40	47.9	2	6	90	0.00	30.004 
15:05	73.7	73.7	73.7	41	48.5	2	5	90	0.00	30.004 
15:10	73.9	73.9	73.9	40	48.0	2	6	112	0.00	30.004 
15:15	74.0	74.0	74.0	43	50.1	3	7	90	0.00	29.999 
15:20	74.0	74.0	74.0	39	47.5	3	6	90	0.00	29.999 
15:25	74.2	74.2	74.2	39	47.6	1	4	90	0.00	29.999 
15:30	74.2	74.2	74.2	39	47.6	2	6	90	0.00	29.992 
15:35	74.0	74.0	74.0	39	47.5	3	9	90	0.00	29.992 
15:40	74.0	74.0	74.0	42	49.4	2	6	90	0.00	29.992 
15:45	74.2	74.2	74.2	39	47.6	3	8	90	0.00	29.989 
15:50	73.9	73.9	73.9	39	47.4	3	9	90	0.00	29.989 
15:55	73.9	73.9	73.9	40	48.0	3	6	90	0.00	29.989 
16:00	74.0	74.0	74.0	39	47.5	3	9	90	0.00	29.986 
16:05	73.9	73.9	73.9	38	46.7	4	10	90	0.00	29.986 
16:10	74.0	74.0	74.0	39	47.5	1	3	90	0.00	29.986 
16:15	74.6	74.6	74.6	38	47.3	2	5	90	0.00	29.988 
16:20	74.7	74.7	74.7	38	47.4	3	6	90	0.00	29.988 
16:25	74.6	74.6	74.6	38	47.3	3	9	90	0.00	29.988 
16:30	74.6	74.6	74.6	39	48.0	1	3	90	0.00	29.976 
16:35	74.7	74.7	74.7	37	46.7	3	6	90	0.00	29.976 
16:40	74.9	74.9	74.9	37	46.9	2	5	90	0.00	29.976 
16:45	74.9	74.9	74.9	37	46.9	3	7	68	0.00	29.975 
16:50	74.7	74.7	74.7	38	47.4	2	5	112	0.00	29.975 
16:55	74.6	74.6	74.6	37	46.6	2	6	90	0.00	29.975 
17:00	74.6	74.6	74.6	37	46.6	3	6	90	0.00	29.969 
17:05	74.4	74.4	74.4	37	46.4	3	6	90	0.00	29.969 
17:10	74.4	74.4	74.4	37	46.4	3	9	90	0.00	29.969 
17:15	74.4	74.4	74.4	37	46.4	2	5	112	0.00	29.969 
17:20	74.6	74.6	74.6	37	46.6	2	6	90	0.00	29.969 
17:25	74.4	74.4	74.4	37	46.4	2	6	90	0.00	29.969 
17:30	74.2	74.2	74.2	38	46.9	2	5	90	0.00	29.971 
17:35	74.2	74.2	74.2	38	46.9	1	4	90	0.00	29.971 
17:40	74.2	74.2	74.2	36	45.5	2	5	90	0.00	29.971 
17:45	74.2	74.2	74.2	37	46.2	2	4	90	0.00	29.972 
17:50	74.2	74.2	74.2	38	46.9	3	7	90	0.00	29.972 
17:55	74.0	74.0	74.0	37	46.1	3	7	90	0.00	29.972 
18:00	73.9	73.9	73.9	38	46.7	1	6	90	0.00	29.971 
18:05	73.9	73.9	73.9	38	46.7	2	5	112	0.00	29.971 
18:10	73.9	73.9	73.9	37	46.0	3	7	90	0.00	29.971 
18:15	73.7	73.7	73.7	37	45.8	4	7	90	0.00	29.963 
18:20	73.5	73.5	73.5	37	45.6	2	7	112	0.00	29.963 
18:25	73.3	73.3	73.3	38	46.1	1	4	90	0.00	29.963 
18:30	73.3	73.3	73.3	38	46.1	2	4	90	0.00	29.968 
18:35	73.2	73.2	73.2	39	46.7	2	10	90	0.00	29.968 
18:40	73.0	73.0	73.0	38	45.9	2	7	90	0.00	29.968 
18:45	72.8	72.8	72.8	37	45.0	2	7	68	0.00	29.972 
18:50	72.8	72.8	72.8	37	45.0	2	10	90	0.00	29.972 
18:55	72.7	72.7	72.7	38	45.6	2	5	90	0.00	29.972 
19:00	72.5	72.5	72.5	39	46.1	1	4	90	0.00	29.970 
19:05	72.3	72.3	72.3	40	46.6	2	7	68	0.00	29.970 
19:10	72.1	72.1	72.1	40	46.4	3	7	90	0.00	29.970 
19:15	71.8	71.8	71.8	41	46.8	2	5	112	0.00	29.963 
19:20	71.6	71.6	71.6	42	47.3	1	5	90	0.00	29.963 
19:25	71.3	71.3	71.3	43	47.6	1	3	90	0.00	29.963 
19:30	70.9	70.9	70.9	43	47.3	1	3	90	0.00	29.973 
19:35	70.6	70.6	70.6	44	47.6	2	5	90	0.00	29.973 
19:40	70.4	70.4	70.4	45	48.0	2	5	90	0.00	29.973 
19:45	70.1	70.1	70.1	45	47.8	2	4	90	0.00	29.974 
19:50	69.8	69.8	69.8	46	48.1	2	4	90	0.00	29.974 
19:55	69.3	69.3	69.3	47	48.2	1	3	90	0.00	29.974 
20:00	68.8	68.8	68.8	48	48.3	1	4	90	0.00	29.974 
20:05	68.1	68.1	68.1	50	48.7	1	4	90	0.00	29.974 
20:10	67.6	67.6	67.6	51	48.8	1	3	90	0.00	29.974 
20:15	67.1	67.1	67.1	52	48.9	1	4	90	0.00	29.974 
20:20	66.6	66.6	66.6	53	48.9	1	3	90	0.00	29.974 
20:25	66.1	66.1	66.1	54	49.0	1	2	90	0.00	29.974 
20:30	65.8	65.8	65.8	55	49.2	1	3	90	0.00	29.981 
20:35	65.3	65.3	65.3	55	48.7	1	3	90	0.00	29.981 
20:40	65.0	65.0	65.0	56	48.9	1	3	90	0.00	29.981 
20:45	64.7	64.7	64.7	57	49.1	1	3	90	0.00	29.989 
20:50	64.3	64.3	64.3	57	48.7	1	3	90	0.00	29.989 
20:55	64.0	64.0	64.0	58	48.9	2	4	90	0.00	29.989 
21:00	63.9	63.9	63.9	58	48.8	1	4	90	0.00	29.994 
21:05	63.5	63.5	63.5	59	48.9	1	3	90	0.00	29.994 
21:10	63.2	63.2	63.2	60	49.1	2	6	112	0.00	29.994 
21:15	63.1	63.1	63.1	61	49.4	2	4	112	0.00	29.995 
21:20	62.9	62.9	62.9	61	49.2	2	5	112	0.00	29.995 
21:25	62.7	62.7	62.7	61	49.1	1	4	90	0.00	29.995 
21:30	62.6	62.6	62.6	61	49.0	2	6	90	0.00	29.989 
21:35	62.6	62.6	62.6	60	48.5	3	6	90	0.00	29.989 
21:40	62.6	62.6	62.6	60	48.5	3	7	90	0.00	29.989 
21:45	62.6	62.6	62.6	60	48.5	3	7	90	0.00	29.989 
21:50	62.4	62.4	62.4	60	48.3	3	9	90	0.00	29.989 
21:55	62.3	62.3	62.3	60	48.2	3	7	90	0.00	29.989 
22:00	62.1	62.1	62.1	61	48.5	2	7	90	0.00	29.990 
22:05	62.0	62.0	62.0	61	48.4	2	5	90	0.00	29.990 
22:10	61.8	61.8	61.8	61	48.2	4	9	90	0.00	29.990 
22:15	61.6	61.6	61.6	61	48.0	3	5	90	0.00	29.985 
22:20	61.5	61.5	61.5	62	48.4	4	7	90	0.00	29.985 
22:25	61.3	61.3	61.3	62	48.2	3	10	90	0.00	29.985 
22:30	61.2	61.2	61.2	63	48.5	3	9	90	0.00	29.985 
22:35	60.9	60.9	60.9	63	48.2	3	6	90	0.00	29.985 
22:40	60.7	60.7	60.7	64	48.4	3	7	90	0.00	29.985 
22:45	60.5	60.5	60.5	64	48.3	3	8	90	0.00	29.984 
22:50	60.4	60.4	60.4	65	48.6	2	5	90	0.00	29.984 
22:55	60.2	60.2	60.2	65	48.4	3	5	90	0.00	29.984 
23:00	60.1	60.1	60.1	65	48.3	3	6	90	0.00	29.983 
23:05	59.8	59.8	59.8	66	48.4	3	6	90	0.00	29.983 
23:10	59.6	59.6	59.6	66	48.2	2	6	90	0.00	29.983 
23:15	59.5	59.5	59.5	66	48.1	2	6	68	0.00	29.981 
23:20	59.3	59.3	59.3	64	47.1	2	6	90	0.00	29.981 
23:25	59.2	59.2	59.2	67	48.2	2	4	90	0.00	29.981 
23:30	59.0	59.0	59.0	67	48.1	2	5	45	0.00	29.983 
23:35	58.9	58.9	58.9	68	48.4	2	4	112	0.00	29.983 
23:40	58.7	58.7	58.7	68	48.2	2	5	90	0.00	29.983 
23:45	58.4	58.4	58.4	69	48.3	2	5	68	0.00	29.982 
23:50	58.3	58.3	58.3	69	48.2	2	6	90	0.00	29.982 
23:55	58.1	58.1	58.1	69	48.0	1	5	68	0.00	29.982 

CoCoRaHS
IN-AL-39
A2 Web Hosting
Creative Commons License
GoDaddy
search engine by freefind advanced

loaded 2018-11-20 14:28:30 • last modified 2010-11-18 10:43:29
Privacy PolicyDisclaimer
• wx.awcolley.com is powered by PmWiki v.2002016 •
• all content (unless otherwise noted) © 2018 A W Colley